createdAt,value
2022-07-26T00:00:57.487Z,42.37
2022-07-26T00:03:00.452Z,43.09
2022-07-26T00:05:03.443Z,43.40
2022-07-26T00:07:09.195Z,44.23
2022-07-26T00:09:13.448Z,44.41
2022-07-26T00:11:16.542Z,45.07
2022-07-26T00:13:21.551Z,45.16
2022-07-26T00:15:24.394Z,45.51
2022-07-26T00:17:27.250Z,44.73
2022-07-26T00:19:30.003Z,44.19
2022-07-26T00:21:32.838Z,43.88
2022-07-26T00:23:35.925Z,44.25
2022-07-26T00:25:40.525Z,44.54
2022-07-26T00:27:43.404Z,44.25
2022-07-26T00:29:48.089Z,44.69
2022-07-26T00:31:50.957Z,45.15
2022-07-26T00:33:54.250Z,45.09
2022-07-26T00:35:57.221Z,45.08
2022-07-26T00:38:00.624Z,45.36
2022-07-26T00:40:05.785Z,45.31
2022-07-26T00:42:14.021Z,45.48
2022-07-26T00:44:17.099Z,45.54
2022-07-26T00:46:44.940Z,45.65
2022-07-26T00:48:47.915Z,45.66
2022-07-26T00:50:51.082Z,45.98
2022-07-26T00:52:54.274Z,45.83
2022-07-26T00:54:57.303Z,45.86
2022-07-26T00:57:00.239Z,45.39
2022-07-26T00:59:04.849Z,45.29
2022-07-26T01:01:08.095Z,45.47
2022-07-26T01:03:11.182Z,45.94
2022-07-26T01:05:14.138Z,45.89
2022-07-26T01:07:17.042Z,46.04
2022-07-26T01:09:20.556Z,46.56
2022-07-26T01:11:23.380Z,46.85
2022-07-26T01:13:26.330Z,46.98
2022-07-26T01:15:30.595Z,46.85
2022-07-26T01:17:33.272Z,47.49
2022-07-26T01:19:39.337Z,47.59
2022-07-26T01:21:43.991Z,47.82
2022-07-26T01:23:46.863Z,48.27
2022-07-26T01:25:49.843Z,47.94
2022-07-26T01:27:55.060Z,47.63
2022-07-26T01:29:57.912Z,47.05
2022-07-26T01:32:03.983Z,46.91
2022-07-26T01:34:07.125Z,47.04
2022-07-26T01:36:12.343Z,46.96
2022-07-26T01:38:16.625Z,47.49
2022-07-26T01:40:19.387Z,47.94
2022-07-26T01:42:22.225Z,47.31
2022-07-26T01:44:25.175Z,47.70
2022-07-26T01:46:28.200Z,46.71
2022-07-26T01:48:31.622Z,45.96
2022-07-26T01:50:34.776Z,46.11
2022-07-26T01:52:39.200Z,45.94
2022-07-26T01:54:43.569Z,45.81
2022-07-26T01:56:46.245Z,45.73
2022-07-26T01:58:49.524Z,46.02
2022-07-26T02:00:52.408Z,45.89
2022-07-26T02:02:55.351Z,45.70
2022-07-26T02:05:01.725Z,45.81
2022-07-26T02:07:05.314Z,45.61
2022-07-26T02:09:09.780Z,45.74
2022-07-26T02:11:17.409Z,45.59
2022-07-26T02:13:20.362Z,45.32
2022-07-26T02:15:23.259Z,45.17
2022-07-26T02:17:26.147Z,45.33
2022-07-26T02:19:44.243Z,45.29
2022-07-26T02:21:47.230Z,45.49
2022-07-26T02:23:50.111Z,45.62
2022-07-26T02:25:54.250Z,45.78
2022-07-26T02:27:58.508Z,45.86
2022-07-26T02:30:01.917Z,46.34
2022-07-26T02:32:05.925Z,46.08
2022-07-26T02:34:09.345Z,46.28
2022-07-26T02:36:12.580Z,46.13
2022-07-26T02:38:17.376Z,46.19
2022-07-26T02:40:20.303Z,46.00
2022-07-26T02:42:23.229Z,46.12
2022-07-26T02:44:28.469Z,45.79
2022-07-26T02:46:31.447Z,46.00
2022-07-26T02:48:34.419Z,46.04
2022-07-26T02:50:38.032Z,46.38
2022-07-26T02:52:40.880Z,46.25
2022-07-26T02:54:43.868Z,46.72
2022-07-26T02:56:46.847Z,46.44
2022-07-26T02:58:49.694Z,46.65
2022-07-26T03:00:53.970Z,46.23
2022-07-26T03:02:57.601Z,46.38
2022-07-26T03:05:02.205Z,46.50
2022-07-26T03:07:05.063Z,46.41
2022-07-26T03:09:07.972Z,45.92
2022-07-26T03:11:12.307Z,46.33
2022-07-26T03:13:15.213Z,46.45
2022-07-26T03:15:18.176Z,46.45
2022-07-26T03:17:22.542Z,46.30
2022-07-26T03:19:25.201Z,46.64
2022-07-26T03:21:28.260Z,46.54
2022-07-26T03:23:33.359Z,46.89
2022-07-26T03:25:37.613Z,46.59
2022-07-26T03:27:40.759Z,46.71
2022-07-26T03:29:43.714Z,46.85
2022-07-26T03:31:46.608Z,46.68
2022-07-26T03:33:50.826Z,46.51
2022-07-26T03:35:53.878Z,46.91
2022-07-26T03:37:57.683Z,46.86
2022-07-26T03:40:00.630Z,46.85
2022-07-26T03:42:03.536Z,46.91
2022-07-26T03:44:06.987Z,46.89
2022-07-26T03:46:10.396Z,46.77
2022-07-26T03:48:13.317Z,47.00
2022-07-26T03:50:17.643Z,46.59
2022-07-26T03:52:20.589Z,46.90
2022-07-26T03:54:23.554Z,47.03
2022-07-26T03:56:34.177Z,47.20
2022-07-26T03:58:37.357Z,47.23
2022-07-26T04:00:40.451Z,47.52
2022-07-26T04:02:43.403Z,47.18
2022-07-26T04:04:46.280Z,47.17
2022-07-26T04:06:50.754Z,47.31
2022-07-26T04:08:53.512Z,47.40
2022-07-26T04:10:56.448Z,48.06
2022-07-26T04:12:59.369Z,48.08
2022-07-26T04:15:02.314Z,48.26
2022-07-26T04:17:05.278Z,48.66
2022-07-26T04:19:08.266Z,48.66
2022-07-26T04:21:11.161Z,49.10
2022-07-26T04:23:15.446Z,48.01
2022-07-26T04:25:18.811Z,47.86
2022-07-26T04:27:21.706Z,48.45
2022-07-26T04:29:24.623Z,48.50
2022-07-26T04:31:27.633Z,47.85
2022-07-26T04:33:37.785Z,48.77
2022-07-26T04:35:40.638Z,48.07
2022-07-26T04:37:45.113Z,47.72
2022-07-26T04:39:54.449Z,48.39
2022-07-26T04:41:57.933Z,49.25
2022-07-26T04:44:00.868Z,49.29
2022-07-26T04:46:03.871Z,48.27
2022-07-26T04:48:08.042Z,48.12
2022-07-26T04:50:11.303Z,47.89
2022-07-26T04:52:14.169Z,47.63
2022-07-26T04:54:20.587Z,47.75
2022-07-26T04:56:24.864Z,48.12
2022-07-26T04:58:27.804Z,48.26
2022-07-26T05:00:30.821Z,48.08
2022-07-26T05:02:33.865Z,48.17
2022-07-26T05:04:36.962Z,48.16
2022-07-26T05:06:39.919Z,47.94
2022-07-26T05:08:43.335Z,47.80
2022-07-26T05:10:49.409Z,48.35
2022-07-26T05:12:57.299Z,47.96
2022-07-26T05:15:00.141Z,47.93
2022-07-26T05:17:08.775Z,48.02
2022-07-26T05:19:13.242Z,47.96
2022-07-26T05:21:16.124Z,48.06
2022-07-26T05:23:20.458Z,48.06
2022-07-26T05:25:23.569Z,47.55
2022-07-26T05:27:26.419Z,47.50
2022-07-26T05:29:30.646Z,47.63
2022-07-26T05:31:33.559Z,48.04
2022-07-26T05:33:36.453Z,48.10
2022-07-26T05:35:39.295Z,47.75
2022-07-26T05:37:43.252Z,47.54
2022-07-26T05:39:46.186Z,47.96
2022-07-26T05:41:49.040Z,47.93
2022-07-26T05:43:52.172Z,48.11
2022-07-26T05:45:57.704Z,48.38
2022-07-26T05:48:00.636Z,48.34
2022-07-26T05:50:04.347Z,48.19
2022-07-26T05:52:07.467Z,48.13
2022-07-26T05:54:10.745Z,47.93
2022-07-26T05:56:13.749Z,47.60
2022-07-26T05:58:16.644Z,47.42
2022-07-26T06:00:20.799Z,47.80
2022-07-26T06:02:25.108Z,47.84
2022-07-26T06:04:27.952Z,47.81
2022-07-26T06:06:30.976Z,47.68
2022-07-26T06:08:34.776Z,47.12
2022-07-26T06:10:37.665Z,46.61
2022-07-26T06:12:41.450Z,47.01
2022-07-26T06:14:44.483Z,47.06
2022-07-26T06:16:47.477Z,47.20
2022-07-26T06:18:51.618Z,47.21
2022-07-26T06:20:54.577Z,47.22
2022-07-26T06:22:58.534Z,47.11
2022-07-26T06:25:01.501Z,47.01
2022-07-26T06:27:05.626Z,47.15
2022-07-26T06:29:08.680Z,47.00
2022-07-26T06:31:11.949Z,47.22
2022-07-26T06:33:15.064Z,47.08
2022-07-26T06:35:20.009Z,47.00
2022-07-26T06:37:22.872Z,46.59
2022-07-26T06:39:25.793Z,46.26
2022-07-26T06:41:28.785Z,46.40
2022-07-26T06:43:31.684Z,46.50
2022-07-26T06:45:34.888Z,46.60
2022-07-26T06:47:37.876Z,46.34
2022-07-26T06:49:40.887Z,45.96
2022-07-26T06:51:45.129Z,45.99
2022-07-26T06:53:48.084Z,46.12
2022-07-26T06:55:50.991Z,46.13
2022-07-26T06:57:53.840Z,46.13
2022-07-26T06:59:56.662Z,45.63
2022-07-26T07:02:00.628Z,45.69
2022-07-26T07:04:03.745Z,45.36
2022-07-26T07:06:07.072Z,44.96
2022-07-26T07:08:11.756Z,44.78
2022-07-26T07:10:14.639Z,44.47
2022-07-26T07:12:17.535Z,44.70
2022-07-26T07:14:20.416Z,44.27
2022-07-26T07:16:23.416Z,44.41
2022-07-26T07:18:26.326Z,44.25
2022-07-26T07:20:29.432Z,44.22
2022-07-26T07:22:33.105Z,44.17
2022-07-26T07:24:37.393Z,44.29
2022-07-26T07:26:40.775Z,44.33
2022-07-26T07:28:43.615Z,44.41
2022-07-26T07:30:47.474Z,44.45
2022-07-26T07:32:51.070Z,44.54
2022-07-26T07:34:54.061Z,44.46
2022-07-26T07:36:56.915Z,43.97
2022-07-26T07:39:05.965Z,43.51
2022-07-26T07:41:10.791Z,43.73
2022-07-26T07:43:13.866Z,43.55
2022-07-26T07:45:16.779Z,43.67
2022-07-26T07:47:19.843Z,43.71
2022-07-26T07:49:23.151Z,43.32
2022-07-26T07:51:26.575Z,43.42
2022-07-26T07:53:30.946Z,43.64
2022-07-26T07:55:41.241Z,43.51
2022-07-26T07:57:48.660Z,43.72
2022-07-26T07:59:51.397Z,43.68
2022-07-26T08:01:54.287Z,43.22
2022-07-26T08:03:57.220Z,43.25
2022-07-26T08:06:00.102Z,43.24
2022-07-26T08:08:03.360Z,42.75
2022-07-26T08:10:07.482Z,42.78
2022-07-26T08:12:11.063Z,42.71
2022-07-26T08:14:15.984Z,43.06
2022-07-26T08:16:20.871Z,42.92
2022-07-26T08:18:24.847Z,42.64
2022-07-26T08:20:27.891Z,42.52
2022-07-26T08:22:30.828Z,42.32
2022-07-26T08:24:33.689Z,42.44
2022-07-26T08:26:36.614Z,42.54
2022-07-26T08:28:48.159Z,41.97
2022-07-26T08:30:52.857Z,42.05
2022-07-26T08:32:55.791Z,42.14
2022-07-26T08:35:17.075Z,41.86
2022-07-26T08:37:21.521Z,42.34
2022-07-26T08:39:24.387Z,43.04
2022-07-26T08:41:27.339Z,43.21
2022-07-26T08:43:30.406Z,42.81
2022-07-26T08:45:36.103Z,42.64
2022-07-26T08:47:55.393Z,43.22
2022-07-26T08:50:04.865Z,42.91
2022-07-26T08:52:08.028Z,43.27
2022-07-26T08:54:13.171Z,43.05
2022-07-26T08:56:16.053Z,43.05
2022-07-26T08:58:18.916Z,43.10
2022-07-26T09:00:24.942Z,42.61
2022-07-26T09:02:42.013Z,42.43
2022-07-26T09:04:46.390Z,42.07
2022-07-26T09:06:57.750Z,41.63
2022-07-26T09:09:12.561Z,41.96
2022-07-26T09:11:33.062Z,41.62
2022-07-26T09:13:51.928Z,42.47
2022-07-26T09:16:10.179Z,42.02
2022-07-26T09:18:28.207Z,42.19
2022-07-26T09:20:33.182Z,42.01
2022-07-26T09:22:36.579Z,41.85
2022-07-26T09:24:42.119Z,42.24
2022-07-26T09:26:56.517Z,42.51
2022-07-26T09:29:07.875Z,42.43
2022-07-26T09:31:11.187Z,42.33
2022-07-26T09:33:14.064Z,41.67
2022-07-26T09:35:45.848Z,40.96
2022-07-26T09:37:44.060Z,40.72
2022-07-26T09:39:58.630Z,40.94
2022-07-26T09:44:31.792Z,40.68
2022-07-26T09:46:53.780Z,40.62
2022-07-26T09:49:10.457Z,40.81
2022-07-26T09:51:15.600Z,40.73
2022-07-26T09:53:19.064Z,39.67
2022-07-26T09:55:22.006Z,39.11
2022-07-26T09:57:25.239Z,38.43
2022-07-26T09:59:29.914Z,38.74
2022-07-26T10:01:33.008Z,38.87
2022-07-26T10:03:36.483Z,38.95
2022-07-26T10:05:40.119Z,38.88
2022-07-26T10:07:45.376Z,38.68
2022-07-26T10:09:53.473Z,37.41
2022-07-26T10:11:59.276Z,37.88
2022-07-26T10:14:22.923Z,38.00
2022-07-26T10:16:33.105Z,38.45
2022-07-26T10:18:47.319Z,37.37
2022-07-26T10:20:52.717Z,37.80
2022-07-26T10:22:56.978Z,38.13
2022-07-26T10:25:46.553Z,38.12
2022-07-26T10:27:51.379Z,38.07
2022-07-26T10:30:23.683Z,37.97
2022-07-26T10:32:27.040Z,37.32
2022-07-26T10:34:31.790Z,37.44
2022-07-26T10:36:36.803Z,37.60
2022-07-26T10:38:40.977Z,35.06
2022-07-26T10:40:57.477Z,36.09
2022-07-26T10:43:37.855Z,36.19
2022-07-26T10:45:32.109Z,35.85
2022-07-26T10:47:35.481Z,36.54
2022-07-26T10:49:40.368Z,36.88
2022-07-26T10:51:43.323Z,36.83
2022-07-26T10:54:00.585Z,36.16
2022-07-26T10:56:03.448Z,36.46
2022-07-26T10:58:06.299Z,36.90
2022-07-26T11:00:15.758Z,35.98
2022-07-26T11:02:19.957Z,35.52
2022-07-26T11:04:24.866Z,34.96
2022-07-26T11:06:30.270Z,35.02
2022-07-26T11:08:33.154Z,34.58
2022-07-26T11:10:39.836Z,35.57
2022-07-26T11:12:42.827Z,35.46
2022-07-26T11:14:48.372Z,36.07
2022-07-26T11:16:51.495Z,36.30
2022-07-26T11:18:54.387Z,36.11
2022-07-26T11:20:59.107Z,36.56
2022-07-26T11:23:02.104Z,36.86
2022-07-26T11:25:06.000Z,37.46
2022-07-26T11:27:10.346Z,36.86
2022-07-26T11:29:16.843Z,36.88
2022-07-26T11:31:22.269Z,36.02
2022-07-26T11:33:36.311Z,36.43
2022-07-26T11:35:51.487Z,36.33
2022-07-26T11:38:05.091Z,36.73
2022-07-26T11:40:14.075Z,36.19
2022-07-26T11:42:21.608Z,36.40
2022-07-26T11:44:24.860Z,35.86
2022-07-26T11:46:37.267Z,35.04
2022-07-26T11:48:46.445Z,35.64
2022-07-26T11:50:49.382Z,35.04
2022-07-26T11:52:53.149Z,35.57
2022-07-26T11:54:56.079Z,35.10
2022-07-26T11:57:00.884Z,35.46
2022-07-26T11:59:05.270Z,34.69
2022-07-26T12:01:09.276Z,34.03
2022-07-26T12:03:12.229Z,34.00
2022-07-26T12:05:18.437Z,33.89
2022-07-26T12:07:22.085Z,33.39
2022-07-26T12:09:33.122Z,33.38
2022-07-26T12:11:40.104Z,34.71
2022-07-26T12:13:55.810Z,34.59
2022-07-26T12:16:00.574Z,35.68
2022-07-26T12:18:03.517Z,34.75
2022-07-26T12:20:13.444Z,35.33
2022-07-26T12:22:18.112Z,35.48
2022-07-26T12:24:44.736Z,35.24
2022-07-26T12:27:04.563Z,35.76
2022-07-26T12:29:24.418Z,35.46
2022-07-26T12:31:30.603Z,35.69
2022-07-26T12:33:33.603Z,35.58
2022-07-26T12:35:36.507Z,35.49
2022-07-26T12:37:51.410Z,35.50
2022-07-26T12:40:08.125Z,35.51
2022-07-26T12:42:33.052Z,34.67
2022-07-26T12:44:37.560Z,35.77
2022-07-26T12:46:41.838Z,33.54
2022-07-26T12:48:46.884Z,34.18
2022-07-26T12:50:50.001Z,34.15
2022-07-26T12:52:53.910Z,34.50
2022-07-26T12:54:56.767Z,34.81
2022-07-26T12:56:59.595Z,34.96
2022-07-26T12:59:02.605Z,35.05
2022-07-26T13:01:05.651Z,35.21
2022-07-26T13:03:09.919Z,35.54
2022-07-26T13:05:13.545Z,35.05
2022-07-26T13:07:17.828Z,35.05
2022-07-26T13:09:20.546Z,35.61
2022-07-26T13:11:23.557Z,35.64
2022-07-26T13:13:26.423Z,35.02
2022-07-26T13:15:36.283Z,34.57
2022-07-26T13:17:40.422Z,34.51
2022-07-26T13:19:44.702Z,34.24
2022-07-26T13:21:52.579Z,34.06
2022-07-26T13:23:56.311Z,34.06
2022-07-26T13:25:59.193Z,33.56
2022-07-26T13:28:02.569Z,33.34
2022-07-26T13:30:06.267Z,33.35
2022-07-26T13:32:09.198Z,33.47
2022-07-26T13:34:12.600Z,33.18
2022-07-26T13:36:17.056Z,33.60
2022-07-26T13:38:20.175Z,34.12
2022-07-26T13:40:25.334Z,33.88
2022-07-26T13:42:31.963Z,33.74
2022-07-26T13:44:35.096Z,34.05
2022-07-26T13:46:38.396Z,33.23
2022-07-26T13:48:58.014Z,32.97
2022-07-26T13:51:03.396Z,33.16
2022-07-26T13:53:07.709Z,33.76
2022-07-26T13:55:10.731Z,33.71
2022-07-26T13:57:13.579Z,33.44
2022-07-26T13:59:16.903Z,33.77
2022-07-26T14:01:19.851Z,33.54
2022-07-26T14:03:42.662Z,33.67
2022-07-26T14:05:45.614Z,34.02
2022-07-26T14:07:48.512Z,34.03
2022-07-26T14:09:52.751Z,34.03
2022-07-26T14:11:55.485Z,34.87
2022-07-26T14:13:58.717Z,34.42
2022-07-26T14:16:01.589Z,34.24
2022-07-26T14:18:05.025Z,34.38
2022-07-26T14:20:09.231Z,34.02
2022-07-26T14:22:11.946Z,33.98
2022-07-26T14:24:14.916Z,33.48
2022-07-26T14:26:23.643Z,33.20
2022-07-26T14:28:26.988Z,32.34
2022-07-26T14:30:29.904Z,33.46
2022-07-26T14:32:33.953Z,33.37
2022-07-26T14:34:37.745Z,33.40
2022-07-26T14:36:40.623Z,33.74
2022-07-26T14:38:44.785Z,33.91
2022-07-26T14:40:48.138Z,33.51
2022-07-26T14:42:52.481Z,34.34
2022-07-26T14:44:55.380Z,33.65
2022-07-26T14:46:58.263Z,33.51
2022-07-26T14:49:01.151Z,33.42
2022-07-26T14:51:09.501Z,33.23
2022-07-26T14:53:13.775Z,33.06
2022-07-26T14:55:23.128Z,32.24
2022-07-26T14:57:28.028Z,32.36
2022-07-26T14:59:32.276Z,30.94
2022-07-26T15:01:35.116Z,30.58
2022-07-26T15:03:38.126Z,30.68
2022-07-26T15:05:41.055Z,30.66
2022-07-26T15:07:46.377Z,30.91
2022-07-26T15:09:49.270Z,30.34
2022-07-26T15:11:52.192Z,30.14
2022-07-26T15:14:03.908Z,29.59
2022-07-26T15:16:10.167Z,29.49
2022-07-26T15:18:13.108Z,29.87
2022-07-26T15:20:16.106Z,29.75
2022-07-26T15:22:19.081Z,29.72
2022-07-26T15:24:23.122Z,30.09
2022-07-26T15:26:27.379Z,29.89
2022-07-26T15:28:30.241Z,29.16
2022-07-26T15:30:33.325Z,29.89
2022-07-26T15:32:37.820Z,30.61
2022-07-26T15:34:40.912Z,30.33
2022-07-26T15:36:43.966Z,30.04
2022-07-26T15:38:47.985Z,29.23
2022-07-26T15:40:50.816Z,28.98
2022-07-26T15:42:54.021Z,29.01
2022-07-26T15:44:58.698Z,28.96
2022-07-26T15:47:01.548Z,28.74
2022-07-26T15:49:07.758Z,29.18
2022-07-26T15:51:10.702Z,28.95
2022-07-26T15:53:16.611Z,28.20
2022-07-26T15:55:20.210Z,27.88
2022-07-26T15:57:23.061Z,28.93
2022-07-26T15:59:25.939Z,29.25
2022-07-26T16:01:29.183Z,29.47
2022-07-26T16:03:32.174Z,29.74
2022-07-26T16:05:36.393Z,29.74
2022-07-26T16:07:41.292Z,29.92
2022-07-26T16:09:44.892Z,29.02
2022-07-26T16:11:48.180Z,28.32
2022-07-26T16:13:51.058Z,28.59
2022-07-26T16:16:04.540Z,28.66
2022-07-26T16:18:07.603Z,28.70
2022-07-26T16:20:11.147Z,28.50
2022-07-26T16:22:15.629Z,28.48
2022-07-26T16:24:18.582Z,28.72
2022-07-26T16:26:21.943Z,28.41
2022-07-26T16:28:24.816Z,28.53
2022-07-26T16:30:27.941Z,29.04
2022-07-26T16:32:30.815Z,29.05
2022-07-26T16:34:34.751Z,28.76
2022-07-26T16:36:37.720Z,29.21
2022-07-26T16:38:42.179Z,29.58
2022-07-26T16:40:45.157Z,29.31
2022-07-26T16:42:48.028Z,30.29
2022-07-26T16:44:50.962Z,30.35
2022-07-26T16:46:54.049Z,30.61
2022-07-26T16:48:57.023Z,30.29
2022-07-26T16:50:59.914Z,30.03
2022-07-26T16:53:03.036Z,30.18
2022-07-26T16:55:10.749Z,30.22
2022-07-26T16:57:13.611Z,30.67
2022-07-26T16:59:17.257Z,30.50
2022-07-26T17:01:20.642Z,30.96
2022-07-26T17:03:23.751Z,31.13
2022-07-26T17:05:26.605Z,31.29
2022-07-26T17:07:29.585Z,31.38
2022-07-26T17:09:32.465Z,31.71
2022-07-26T17:11:36.874Z,32.05
2022-07-26T17:13:39.860Z,31.97
2022-07-26T17:15:42.708Z,31.90
2022-07-26T17:17:48.689Z,31.05
2022-07-26T17:19:52.326Z,31.13
2022-07-26T17:21:55.229Z,31.12
2022-07-26T17:24:00.603Z,31.22
2022-07-26T17:26:06.726Z,31.50
2022-07-26T17:28:10.998Z,31.36
2022-07-26T17:30:14.385Z,33.29
2022-07-26T17:32:17.263Z,32.67
2022-07-26T17:34:20.191Z,32.02
2022-07-26T17:36:24.832Z,31.42
2022-07-26T17:38:27.757Z,31.90
2022-07-26T17:40:33.609Z,32.85
2022-07-26T17:42:36.610Z,32.64
2022-07-26T17:44:41.065Z,33.13
2022-07-26T17:46:44.122Z,33.12
2022-07-26T17:48:47.138Z,32.65
2022-07-26T17:50:50.055Z,33.48
2022-07-26T17:52:53.311Z,33.72
2022-07-26T17:54:58.777Z,33.65
2022-07-26T17:57:01.668Z,34.06
2022-07-26T17:59:04.586Z,33.31
2022-07-26T18:01:09.165Z,32.89
2022-07-26T18:03:11.993Z,32.77
2022-07-26T18:05:15.675Z,32.84
2022-07-26T18:07:19.504Z,33.60
2022-07-26T18:09:22.468Z,33.87
2022-07-26T18:11:25.595Z,32.79
2022-07-26T18:13:28.562Z,32.59
2022-07-26T18:15:31.488Z,32.29
2022-07-26T18:17:35.852Z,32.02
2022-07-26T18:19:38.727Z,32.11
2022-07-26T18:21:41.800Z,32.78
2022-07-26T18:24:06.655Z,32.76
2022-07-26T18:26:07.700Z,32.54
2022-07-26T18:28:10.762Z,32.70
2022-07-26T18:30:13.884Z,32.27
2022-07-26T18:32:16.916Z,32.35
2022-07-26T18:34:21.223Z,32.87
2022-07-26T18:36:24.237Z,32.40
2022-07-26T18:38:27.246Z,32.79
2022-07-26T18:40:30.360Z,33.00
2022-07-26T18:42:33.281Z,33.13
2022-07-26T18:44:37.130Z,33.14
2022-07-26T18:46:40.089Z,33.58
2022-07-26T18:48:43.205Z,33.60
2022-07-26T18:50:52.230Z,33.92
2022-07-26T18:52:56.024Z,33.86
2022-07-26T18:54:59.563Z,33.87
2022-07-26T18:57:02.631Z,34.22
2022-07-26T18:59:05.606Z,34.21
2022-07-26T19:01:08.579Z,34.81
2022-07-26T19:03:11.497Z,34.29
2022-07-26T19:05:15.089Z,33.97
2022-07-26T19:07:19.548Z,33.94
2022-07-26T19:09:22.347Z,34.33
2022-07-26T19:11:26.976Z,33.80
2022-07-26T19:13:29.970Z,34.09
2022-07-26T19:15:33.000Z,34.74
2022-07-26T19:17:37.046Z,34.42
2022-07-26T19:19:40.014Z,34.69
2022-07-26T19:21:46.362Z,34.92
2022-07-26T19:23:50.736Z,34.95
2022-07-26T19:25:53.749Z,35.30
2022-07-26T19:27:56.600Z,35.10
2022-07-26T19:29:59.491Z,35.04
2022-07-26T19:32:02.459Z,35.12
2022-07-26T19:34:05.386Z,35.32
2022-07-26T19:36:08.720Z,35.17
2022-07-26T19:38:11.828Z,35.18
2022-07-26T19:40:16.228Z,35.35
2022-07-26T19:42:19.928Z,35.47
2022-07-26T19:44:22.874Z,36.11
2022-07-26T19:46:25.858Z,36.35
2022-07-26T19:48:29.153Z,36.68
2022-07-26T19:50:32.373Z,37.34
2022-07-26T19:52:35.358Z,37.12
2022-07-26T19:54:38.275Z,37.27
2022-07-26T19:56:42.814Z,37.53
2022-07-26T19:58:46.706Z,37.68
2022-07-26T20:00:50.120Z,37.85
2022-07-26T20:02:53.103Z,37.94
2022-07-26T20:04:56.093Z,38.16
2022-07-26T20:06:58.961Z,38.33
2022-07-26T20:09:02.005Z,38.27
2022-07-26T20:11:04.901Z,38.34
2022-07-26T20:13:09.298Z,38.33
2022-07-26T20:15:12.893Z,38.53
2022-07-26T20:17:15.864Z,38.59
2022-07-26T20:19:18.907Z,38.66
2022-07-26T20:21:22.155Z,38.76
2022-07-26T20:23:25.961Z,38.95
2022-07-26T20:25:28.838Z,39.04
2022-07-26T20:27:31.700Z,38.68
2022-07-26T20:29:36.768Z,38.87
2022-07-26T20:31:39.680Z,38.82
2022-07-26T20:33:42.555Z,38.87
2022-07-26T20:35:50.259Z,38.88
2022-07-26T20:37:56.148Z,38.66
2022-07-26T20:39:59.112Z,38.61
2022-07-26T20:42:03.046Z,38.60
2022-07-26T20:44:06.862Z,38.54
2022-07-26T20:46:11.267Z,38.54
2022-07-26T20:48:14.146Z,38.50
2022-07-26T20:50:17.597Z,38.43
2022-07-26T20:52:20.532Z,38.64
2022-07-26T20:54:23.455Z,38.65
2022-07-26T20:56:26.592Z,38.84
2022-07-26T20:58:29.690Z,39.15
2022-07-26T21:00:32.695Z,39.10
2022-07-26T21:02:37.212Z,38.89
2022-07-26T21:04:40.174Z,39.08
2022-07-26T21:06:43.327Z,39.22
2022-07-26T21:08:46.269Z,39.11
2022-07-26T21:10:49.413Z,39.05
2022-07-26T21:12:52.919Z,38.97
2022-07-26T21:14:55.993Z,39.10
2022-07-26T21:16:58.962Z,39.41
2022-07-26T21:19:03.624Z,39.37
2022-07-26T21:21:06.842Z,39.32
2022-07-26T21:23:17.467Z,39.57
2022-07-26T21:25:21.437Z,39.50
2022-07-26T21:27:24.331Z,39.14
2022-07-26T21:29:27.158Z,39.53
2022-07-26T21:31:30.020Z,39.41
2022-07-26T21:33:33.033Z,39.69
2022-07-26T21:35:37.332Z,39.76
2022-07-26T21:37:42.658Z,39.54
2022-07-26T21:39:48.909Z,39.96
2022-07-26T21:41:51.780Z,39.85
2022-07-26T21:43:54.673Z,40.03
2022-07-26T21:45:57.633Z,40.54
2022-07-26T21:48:00.533Z,40.45
2022-07-26T21:50:03.652Z,40.44
2022-07-26T21:52:08.248Z,40.47
2022-07-26T21:54:11.404Z,40.91
2022-07-26T21:56:14.315Z,41.02
2022-07-26T21:58:17.190Z,41.35
2022-07-26T22:00:20.126Z,41.72
2022-07-26T22:02:23.117Z,41.79
2022-07-26T22:04:26.014Z,42.09
2022-07-26T22:06:28.906Z,42.23
2022-07-26T22:08:33.357Z,42.52
2022-07-26T22:10:44.316Z,42.36
2022-07-26T22:12:48.038Z,42.79
2022-07-26T22:14:50.868Z,43.27
2022-07-26T22:16:53.887Z,43.33
2022-07-26T22:18:56.805Z,43.58
2022-07-26T22:21:00.957Z,43.80
2022-07-26T22:23:05.994Z,43.34
2022-07-26T22:25:10.564Z,43.83
2022-07-26T22:27:13.387Z,44.00
2022-07-26T22:29:16.818Z,43.98
2022-07-26T22:31:19.765Z,44.59
2022-07-26T22:33:23.374Z,44.84
2022-07-26T22:35:27.643Z,45.01
2022-07-26T22:37:37.931Z,45.06
2022-07-26T22:39:40.827Z,45.03
2022-07-26T22:42:12.874Z,45.42
2022-07-26T22:44:07.959Z,45.54
2022-07-26T22:46:11.006Z,45.91
2022-07-26T22:48:13.904Z,46.18
2022-07-26T22:50:16.860Z,46.36
2022-07-26T22:52:20.502Z,46.34
2022-07-26T22:54:23.444Z,46.36
2022-07-26T22:56:26.395Z,46.30
2022-07-26T22:58:30.613Z,46.55
2022-07-26T23:00:33.740Z,46.74
2022-07-26T23:02:37.198Z,47.20
2022-07-26T23:04:40.245Z,47.25
2022-07-26T23:06:43.428Z,47.41
2022-07-26T23:08:48.021Z,47.37
2022-07-26T23:10:51.903Z,47.28
2022-07-26T23:12:55.258Z,47.16
2022-07-26T23:14:59.505Z,47.49
2022-07-26T23:17:02.479Z,47.66
2022-07-26T23:19:05.869Z,47.59
2022-07-26T23:21:08.725Z,47.96
2022-07-26T23:23:11.583Z,47.80
2022-07-26T23:25:14.490Z,47.75
2022-07-26T23:27:20.155Z,47.74
2022-07-26T23:29:23.383Z,47.78
2022-07-26T23:31:27.729Z,48.04
2022-07-26T23:33:53.282Z,47.72
2022-07-26T23:35:53.503Z,47.87
2022-07-26T23:37:56.415Z,48.17
2022-07-26T23:39:59.677Z,48.29
2022-07-26T23:42:03.255Z,48.17
2022-07-26T23:44:06.276Z,48.38
2022-07-26T23:46:09.155Z,48.63
2022-07-26T23:48:13.581Z,48.81
2022-07-26T23:50:18.328Z,48.40
2022-07-26T23:52:21.181Z,48.87
2022-07-26T23:54:24.100Z,49.05
2022-07-26T23:56:27.002Z,49.45
2022-07-26T23:58:30.033Z,49.02
